Meteo Giornale » Osservazioni meteo Italia » Firenze-Peretola

ore: 08:20 - Osservazioni Meteo Firenze-Peretola
Lat. 43° 48' N Lon. 11° 12' E Alt. 40 metri s.l.m.

coperto_pioggia Europe/Rome

9 °C

Pioggia Debole

Temp. 24 Ore

1 °C

15 °C

Est/Sud-Est

11.1 Km/h

Dew point 7 °C

Umidità 87 %

Visibilità  10 Km

Il sole sorge alle ore 07:43

Il sole tramonta alle ore 17:07

Data e Ora Cielo e Fenomeni T °C DP °C Um. % Pres. hPa Vis. km Vento km/h
Oggi h: 08:20 coperto_pioggia Pioggia Debole 9 7 87 1016 10 E/SE 11.1
Oggi h: 07:50 coperto_pioggia Pioggia Debole 9 7 87 1016 10 E/SE 18.5
Oggi h: 07:20 coperto_pioggia Pioggia Debole 9 7 87 1017 10 E/SE 11.1
Oggi h: 06:50 coperto_pioggia Pioviggine Leggera 9 8 93 1016 10 E/SE 14.8
Oggi h: 06:20 coperto_pioggia Pioviggine Leggera 9 7 87 1017 8 SE 14.8
Oggi h: 05:50 coperto_pioggia Pioviggine Leggera 9 8 93 1017 7 SE 18.5
Oggi h: 05:20 coperto_pioggia Pioviggine Leggera 9 8 93 1017 7 S/SE 9.3
Oggi h: 04:50 coperto_pioggia Pioviggine Leggera 9 8 93 1017 8 E/SE 7.4
Oggi h: 04:20 coperto_pioggia Pioviggine 9 8 93 1018 8 N 3.7
Oggi h: 03:50 coperto_pioggia Pioggia Debole 9 7 87 1018 10 O 7.4
Oggi h: 03:20 molto_nuvoloso Molto Nuvoloso 10 6 76 1018 10 S 9.3
Oggi h: 02:50 molto_nuvoloso Molto Nuvoloso 11 6 71 1018 10 S/SE 9.3
Oggi h: 02:20 molto_nuvoloso Molto Nuvoloso 10 6 76 1018 10 N 5.5
Oggi h: 01:50 molto_nuvoloso Molto Nuvoloso 10 6 76 1018 10 N 3.7
Oggi h: 01:20 coperto_pioggia Pioggia Debole 10 7 81 1019 10 S/SE 9.3
Oggi h: 00:50 molto_nuvoloso Molto Nuvoloso 11 6 71 1019 10 S/SE 9.3
Oggi h: 00:20 molto_nuvoloso Molto Nuvoloso 11 6 71 1019 10 N 1.8
Ieri h: 23:50 molto_nuvoloso Molto Nuvoloso 10 6 76 1019 10 N 5.5
Ieri h: 22:50 molto_nuvoloso Molto Nuvoloso 11 6 71 1020 10 SE 14.8
Ieri h: 22:20 molto_nuvoloso Molto Nuvoloso 11 6 71 1020 10 SE 9.3
Ieri h: 21:50 molto_nuvoloso Molto Nuvoloso 9 6 81 1020 10 SE 11.1
Ieri h: 21:20 molto_nuvoloso Molto Nuvoloso 8 5 81 1020 10 N 5.5
Ieri h: 20:50 molto_nuvoloso Molto Nuvoloso 8 5 81 1020 10 N 3.7
Ieri h: 20:20 molto_nuvoloso Molto Nuvoloso 8 4 75 1020 10 N 3.7
Ieri h: 19:50 molto_nuvoloso Molto Nuvoloso 11 5 66 1020 10 S 7.4
Ieri h: 19:20 molto_nuvoloso Molto Nuvoloso 11 4 61 1020 10 N 5.5
Ieri h: 18:50 molto_nuvoloso Molto Nuvoloso 11 5 66 1020 10 N 3.7
Ieri h: 18:20 molto_nuvoloso Molto Nuvoloso 12 5 62 1020 10 N 5.5
Ieri h: 17:50 molto_nuvoloso Molto Nuvoloso 13 4 54 1020 10 SO 7.4
Ieri h: 17:20 molto_nuvoloso Molto Nuvoloso 12 4 57 1020 10 S/SO 7.4
Ieri h: 16:50 molto_nuvoloso Molto Nuvoloso 13 4 54 1020 10 S/SO 9.3
Ieri h: 16:20 molto_nuvoloso Molto Nuvoloso 14 4 50 1020 10 S/SO 9.3
Ieri h: 15:50 molto_nuvoloso Molto Nuvoloso 14 4 50 1020 10 N 5.5
Ieri h: 15:20 molto_nuvoloso Molto Nuvoloso 14 4 50 1020 10 N 5.5
Ieri h: 14:50 nuvoloso Nuvoloso 13 4 54 1020 10 N 5.5
Ieri h: 14:20 poco_nuvoloso Poco Nuvoloso 15 3 44 1020 10 N 1.8
Ieri h: 13:50 nuvoloso Nuvoloso 13 3 50 1021 10 N 3.7
Ieri h: 13:20 nuvoloso Nuvoloso 13 2 47 1021 10 N 3.7
Ieri h: 12:50 poco_nuvoloso Poco Nuvoloso 12 2 50 1022 10 N 3.7
Ieri h: 12:20 sereno Sereno 11 1 50 1022 10 N 3.7
Ieri h: 11:50 sereno Sereno 9 1 57 1022 10 N 3.7
Ieri h: 11:20 sereno Sereno 8 0 56 1023 10 N 5.5
Ieri h: 10:20 sereno Sereno 7 -0 60 1023 10 N 1.8
Ieri h: 09:50 sereno Sereno 6 -0 65 1023 10 N 1.8
Ieri h: 09:20 sereno Sereno 4 -0 75 1023 10 N 3.7
Ieri h: 08:50 sereno Sereno 2 -0 86 1023 10 N 3.7
Ieri h: 08:20 poco_nuvoloso Poco Nuvoloso 1 -1 86 1022 10 N 3.7
Ieri h: 07:50 nuvoloso Nuvoloso 2 -1 80 1022 10 N 3.7